Time;durP1;ratioP1;P1;durP2;ratioP2;P2;SDS_P1;SDS_P2;PMS_P1;PMS_P2;Temp;Humidity;BMP_temperature;BMP_pressure;BME280_temperature;BME280_humidity;BME280_pressure;Samples;Min_cycle;Max_cycle;Signal;HPM_P1;HPM_P2
2023/04/24 00:00:50;;;;;;;6.03;3.87;;;;;;;8.93;100.00;99908.63;5053312;28;20032;-90
2023/04/24 00:03:16;;;;;;;4.68;3.53;;;;;;;8.87;100.00;99901.84;5053346;28;20461;-89
2023/04/24 00:06:00;;;;;;;4.83;3.70;;;;;;;8.93;100.00;99908.63;5052648;28;20127;-91
2023/04/24 00:08:26;;;;;;;6.70;4.40;;;;;;;8.88;100.00;99890.63;5053253;28;20020;-91
2023/04/24 00:10:52;;;;;;;8.03;4.77;;;;;;;8.91;100.00;99910.41;5053077;28;20028;-90
2023/04/24 00:13:28;;;;;;;8.65;5.00;;;;;;;8.87;100.00;99898.44;5052690;28;20044;-90
2023/04/24 00:16:05;;;;;;;8.45;4.55;;;;;;;8.93;100.00;99906.03;5053649;28;20104;-90
2023/04/24 00:18:30;;;;;;;10.00;5.90;;;;;;;8.92;100.00;99909.50;5056465;28;20108;-90
2023/04/24 00:20:56;;;;;;;9.70;5.70;;;;;;;8.90;100.00;99908.69;5056722;28;20104;-90
2023/04/24 00:23:21;;;;;;;11.33;5.73;;;;;;;8.84;100.00;99901.94;5057383;28;20029;-89
2023/04/24 00:25:46;;;;;;;13.40;6.40;;;;;;;8.87;100.00;99913.97;5057188;28;20068;-91
2023/04/24 00:28:18;;;;;;;10.00;5.63;;;;;;;8.85;100.00;99918.31;5056893;28;20539;-91
2023/04/24 00:30:43;;;;;;;8.65;4.90;;;;;;;8.87;100.00;99921.72;5056705;28;20029;-89
2023/04/24 00:33:08;;;;;;;10.33;6.00;;;;;;;8.86;100.00;99920.84;5056870;28;20100;-89
2023/04/24 00:35:46;;;;;;;11.33;5.67;;;;;;;8.83;100.00;99918.38;5056244;28;20079;-90
2023/04/24 00:38:21;;;;;;;11.68;6.43;;;;;;;8.84;100.00;99921.78;5056904;28;20521;-89
2023/04/24 00:40:49;;;;;;;12.80;6.32;;;;;;;8.86;100.00;99930.38;5056756;28;20033;-90
2023/04/24 00:43:30;;;;;;;9.77;5.70;;;;;;;8.79;100.00;99921.91;5056641;28;20381;-89
2023/04/24 00:46:10;;;;;;;12.43;6.68;;;;;;;8.81;100.00;99925.31;5056637;28;20056;-89
2023/04/24 00:48:48;;;;;;;13.77;7.30;;;;;;;8.67;100.00;99909.22;5055990;28;20067;-88
2023/04/24 00:51:13;;;;;;;15.15;7.53;;;;;;;8.75;100.00;99930.59;5056485;28;20028;-90
2023/04/24 00:53:48;;;;;;;14.50;7.53;;;;;;;8.74;100.00;99929.75;5055800;28;20037;-90
2023/04/24 00:56:14;;;;;;;12.00;6.47;;;;;;;8.67;100.00;99914.41;5056281;28;20162;-90
2023/04/24 00:58:41;;;;;;;12.03;6.20;;;;;;;8.73;100.00;99934.94;5055581;28;20079;-90
2023/04/24 01:01:07;;;;;;;13.80;7.05;;;;;;;8.71;100.00;99924.66;5054964;28;20505;-89
2023/04/24 01:03:33;;;;;;;13.47;6.57;;;;;;;8.70;100.00;99932.44;5055420;28;20029;-90
2023/04/24 01:05:58;;;;;;;12.93;6.50;;;;;;;8.67;100.00;99925.59;5056163;28;20388;-90
2023/04/24 01:08:26;;;;;;;12.87;7.10;;;;;;;8.60;100.00;99919.72;5055849;28;20017;-90
2023/04/24 01:10:57;;;;;;;15.23;7.55;;;;;;;8.67;100.00;99935.09;5055692;28;20075;-89
2023/04/24 01:13:40;;;;;;;15.20;7.95;;;;;;;8.66;100.00;99918.75;5055553;28;20028;-89
2023/04/24 01:16:17;;;;;;;14.02;7.55;;;;;;;8.63;100.00;99911.88;5055539;28;20028;-89
2023/04/24 01:18:51;;;;;;;14.35;7.47;;;;;;;8.63;100.00;99923.97;5055678;28;20028;-90
2023/04/24 01:21:18;;;;;;;12.50;6.90;;;;;;;8.63;100.00;99923.97;5051068;28;20064;-90
2023/04/24 01:23:44;;;;;;;13.70;7.00;;;;;;;8.56;100.00;99910.31;5046139;28;20095;-89
2023/04/24 01:26:10;;;;;;;13.90;7.40;;;;;;;8.58;100.00;99910.28;5055196;28;20025;-88
2023/04/24 01:28:36;;;;;;;14.17;7.70;;;;;;;8.63;100.00;99923.97;5054876;28;20036;-90
2023/04/24 01:31:10;;;;;;;15.33;7.23;;;;;;;8.59;100.00;99923.19;5055377;28;20055;-89
2023/04/24 01:33:36;;;;;;;15.55;7.97;;;;;;;8.51;100.00;99914.72;5055556;28;20283;-89
2023/04/24 01:36:01;;;;;;;15.07;8.13;;;;;;;8.52;100.00;99913.84;5035371;28;20516;-89
2023/04/24 01:38:26;;;;;;;17.10;8.77;;;;;;;8.53;100.00;99919.88;5035186;28;20025;-89
2023/04/24 01:40:52;;;;;;;16.50;8.53;;;;;;;8.49;100.00;99927.72;5035790;28;20056;-90
2023/04/24 01:43:18;;;;;;;17.00;8.93;;;;;;;8.45;100.00;99922.59;5035536;28;20401;-89
2023/04/24 01:45:43;;;;;;;15.97;8.67;;;;;;;8.47;100.00;99929.47;5035207;28;20462;-89
2023/04/24 01:48:09;;;;;;;16.87;9.23;;;;;;;8.44;100.00;99932.09;5034955;28;20200;-88
2023/04/24 01:50:36;;;;;;;18.53;9.10;;;;;;;8.40;100.00;99927.00;5035221;28;20017;-90
2023/04/24 01:53:01;;;;;;;18.23;9.32;;;;;;;8.42;100.00;99923.53;5035330;28;20029;-90
2023/04/24 01:55:27;;;;;;;18.00;9.50;;;;;;;8.34;100.00;99913.34;5035138;28;20386;-89
2023/04/24 01:57:55;;;;;;;16.30;8.77;;;;;;;8.31;100.00;99910.81;5034806;28;20033;-88
2023/04/24 02:00:22;;;;;;;17.42;9.25;;;;;;;8.37;100.00;99919.34;5034413;28;20462;-89
2023/04/24 02:02:47;;;;;;;16.20;8.43;;;;;;;8.40;100.00;99922.69;5035262;28;20032;-90
2023/04/24 02:05:12;;;;;;;17.53;9.40;;;;;;;8.40;100.00;99932.19;5034868;28;20021;-89
2023/04/24 02:07:38;;;;;;;18.47;9.87;;;;;;;8.43;100.00;99939.88;5035018;28;20037;-89
2023/04/24 02:10:04;;;;;;;19.37;11.20;;;;;;;8.40;100.00;99932.19;5034634;28;20113;-89
2023/04/24 02:12:29;;;;;;;20.43;11.63;;;;;;;8.35;100.00;99932.28;5034689;28;20048;-89
2023/04/24 02:14:54;;;;;;;18.73;10.03;;;;;;;8.33;100.00;99936.66;5035041;28;20033;-90
2023/04/24 02:17:20;;;;;;;19.13;11.10;;;;;;;8.36;100.00;99944.31;5034944;28;20025;-90
2023/04/24 02:19:46;;;;;;;18.37;9.93;;;;;;;8.33;100.00;99934.06;5034377;28;20025;-89
2023/04/24 02:22:11;;;;;;;16.00;8.90;;;;;;;8.29;100.00;99933.25;5034674;28;20121;-89
2023/04/24 02:24:37;;;;;;;16.13;8.70;;;;;;;8.33;100.00;99942.66;5034823;28;20036;-90
2023/04/24 02:27:02;;;;;;;16.60;8.93;;;;;;;8.34;100.00;99939.19;5034633;28;20025;-89
2023/04/24 02:29:28;;;;;;;15.57;8.43;;;;;;;8.32;100.00;99946.13;5034403;28;20037;-88
2023/04/24 02:31:53;;;;;;;17.10;9.13;;;;;;;8.32;100.00;99945.28;5034371;28;20021;-89
2023/04/24 02:34:22;;;;;;;18.47;9.63;;;;;;;8.34;100.00;99943.50;5039747;28;20508;-89
2023/04/24 02:36:48;;;;;;;17.45;9.63;;;;;;;8.26;100.00;99940.22;5054359;28;20023;-89
2023/04/24 02:39:16;;;;;;;15.63;8.17;;;;;;;8.25;100.00;99935.94;5054071;28;20092;-89
2023/04/24 02:41:41;;;;;;;16.27;8.38;;;;;;;8.24;100.00;99935.09;5054038;28;20099;-89
2023/04/24 02:44:06;;;;;;;14.60;8.03;;;;;;;8.18;100.00;99924.88;5054451;28;20116;-89
2023/04/24 02:46:32;;;;;;;15.93;8.70;;;;;;;8.20;100.00;99928.28;5054099;28;20382;-89
2023/04/24 02:48:57;;;;;;;17.60;9.27;;;;;;;8.21;100.00;99934.31;5053796;28;20111;-89
2023/04/24 02:51:22;;;;;;;17.97;9.33;;;;;;;8.22;100.00;99926.50;5053569;28;20043;-89
2023/04/24 02:53:48;;;;;;;18.13;10.20;;;;;;;8.18;100.00;99925.72;5054427;28;20029;-89
2023/04/24 02:56:13;;;;;;;17.67;9.60;;;;;;;8.15;100.00;99918.03;5053331;28;20024;-89
2023/04/24 02:58:38;;;;;;;17.07;9.70;;;;;;;8.13;100.00;99919.78;5053809;28;20031;-89
2023/04/24 03:01:04;;;;;;;18.00;9.80;;;;;;;8.04;100.00;99909.66;5054209;28;20075;-89
2023/04/24 03:03:37;;;;;;;16.38;8.70;;;;;;;8.12;100.00;99918.09;5053638;28;20469;-89
2023/04/24 03:06:03;;;;;;;18.02;9.95;;;;;;;7.99;100.00;99901.97;5053842;28;20039;-89
2023/04/24 03:08:28;;;;;;;16.20;8.73;;;;;;;8.10;100.00;99919.00;5053136;28;20021;-89
2023/04/24 03:10:53;;;;;;;16.55;8.63;;;;;;;8.13;100.00;99924.13;5054125;28;20032;-89
2023/04/24 03:13:18;;;;;;;15.57;8.23;;;;;;;8.04;100.00;99907.94;5053171;28;20072;-88
2023/04/24 03:15:44;;;;;;;14.10;7.70;;;;;;;8.04;100.00;99907.94;5053031;28;20530;-88
2023/04/24 03:18:10;;;;;;;13.57;7.30;;;;;;;8.04;100.00;99905.34;5053567;28;20021;-89
2023/04/24 03:20:36;;;;;;;16.87;8.57;;;;;;;8.04;100.00;99914.81;5053454;28;20028;-89
2023/04/24 03:23:02;;;;;;;15.93;8.50;;;;;;;8.05;100.00;99911.34;5053196;28;20051;-89
2023/04/24 03:25:30;;;;;;;18.93;10.17;;;;;;;8.09;100.00;99928.50;5053461;28;20052;-90
2023/04/24 03:27:56;;;;;;;20.38;11.52;;;;;;;8.10;100.00;99925.03;5053368;28;20466;-89
2023/04/24 03:30:21;;;;;;;19.20;11.40;;;;;;;8.08;100.00;99931.09;5052608;28;20033;-89
2023/04/24 03:32:49;;;;;;;19.30;11.20;;;;;;;8.09;100.00;99927.63;5053567;28;20380;-88
2023/04/24 03:35:14;;;;;;;17.60;9.73;;;;;;;8.04;100.00;99919.97;5053264;28;20076;-89
2023/04/24 03:37:40;;;;;;;15.00;8.37;;;;;;;8.09;100.00;99931.09;5053301;28;20487;-88
2023/04/24 03:40:06;;;;;;;16.17;8.93;;;;;;;8.05;100.00;99924.28;5053694;28;20029;-88
2023/04/24 03:42:32;;;;;;;15.75;8.75;;;;;;;8.07;100.00;99925.09;5053230;28;20025;-88
2023/04/24 03:44:57;;;;;;;15.27;7.90;;;;;;;8.03;100.00;99920.84;5053014;28;20028;-89
2023/04/24 03:47:22;;;;;;;16.13;8.50;;;;;;;8.06;100.00;99919.94;5053575;28;20025;-89
2023/04/24 03:49:48;;;;;;;14.80;8.37;;;;;;;8.06;100.00;99922.53;5053936;28;20468;-88
2023/04/24 03:52:13;;;;;;;16.83;8.87;;;;;;;8.06;100.00;99923.38;5054079;28;20021;-89
2023/04/24 03:54:38;;;;;;;17.07;9.27;;;;;;;8.09;100.00;99918.16;5057026;28;20591;-89
2023/04/24 03:57:04;;;;;;;17.08;9.55;;;;;;;8.06;100.00;99927.69;5057047;28;20060;-88
2023/04/24 03:59:30;;;;;;;15.37;8.03;;;;;;;8.02;100.00;99913.97;5056969;28;20123;-88
2023/04/24 04:01:55;;;;;;;15.70;8.03;;;;;;;8.04;100.00;99917.41;5057389;28;20469;-88
2023/04/24 04:04:20;;;;;;;15.20;8.30;;;;;;;8.01;100.00;99915.72;5057038;28;20111;-87
2023/04/24 04:06:46;;;;;;;16.37;7.57;;;;;;;8.01;100.00;99920.03;5056922;28;20044;-88
2023/04/24 04:09:14;;;;;;;14.40;7.60;;;;;;;8.02;100.00;99911.41;5057068;28;20049;-89
2023/04/24 04:11:40;;;;;;;13.93;7.25;;;;;;;8.04;100.00;99920.84;5056728;28;20518;-88
2023/04/24 04:14:05;;;;;;;14.82;7.78;;;;;;;8.10;100.00;99913.84;5054752;28;20040;-88
2023/04/24 04:16:31;;;;;;;14.03;7.33;;;;;;;8.02;100.00;99921.72;5056623;28;20017;-88
2023/04/24 04:18:56;;;;;;;16.53;8.23;;;;;;;8.02;100.00;99926.91;5056382;28;20028;-89
2023/04/24 04:21:22;;;;;;;14.43;7.70;;;;;;;7.97;100.00;99914.06;5048486;28;20409;-88
2023/04/24 04:23:50;;;;;;;13.87;6.83;;;;;;;7.91;100.00;99914.22;5057239;28;20032;-89
2023/04/24 04:26:15;;;;;;;15.30;7.90;;;;;;;7.90;100.00;99907.34;5056949;28;20373;-89
2023/04/24 04:28:52;;;;;;;14.10;7.33;;;;;;;7.86;100.00;99913.44;5056686;28;20033;-89
2023/04/24 04:31:18;;;;;;;15.45;8.35;;;;;;;7.97;100.00;99931.31;5056799;28;20162;-88
2023/04/24 04:33:44;;;;;;;14.50;7.70;;;;;;;7.94;100.00;99928.78;5054833;28;20044;-88
2023/04/24 04:36:09;;;;;;;14.17;7.47;;;;;;;7.93;100.00;99927.97;5037080;28;20119;-89
2023/04/24 04:38:44;;;;;;;13.25;7.00;;;;;;;7.94;100.00;99927.03;5036633;28;20049;-89
2023/04/24 04:41:20;;;;;;;13.88;7.25;;;;;;;7.85;100.00;99917.75;5036260;28;20022;-87
2023/04/24 04:43:58;;;;;;;10.68;6.40;;;;;;;7.83;100.00;99916.94;5036204;28;20092;-88
2023/04/24 04:46:25;;;;;;;11.80;6.35;;;;;;;7.94;100.00;99934.78;5037472;28;20085;-92
2023/04/24 04:48:51;;;;;;;12.05;6.85;;;;;;;7.93;100.00;99929.66;5036843;28;20462;-87
2023/04/24 04:51:16;;;;;;;14.07;7.60;;;;;;;7.90;100.00;99935.75;5036443;28;20036;-90
2023/04/24 04:53:41;;;;;;;14.33;8.40;;;;;;;7.79;100.00;99920.44;5036294;28;20040;-90
2023/04/24 04:56:07;;;;;;;13.70;7.50;;;;;;;7.89;100.00;99947.81;5036495;28;20029;-89
2023/04/24 04:58:33;;;;;;;13.13;7.43;;;;;;;7.89;100.00;99946.97;5036081;28;20103;-90
2023/04/24 05:00:58;;;;;;;11.03;6.33;;;;;;;7.87;100.00;99947.00;5036198;28;20025;-90
2023/04/24 05:03:36;;;;;;;10.23;6.20;;;;;;;7.81;100.00;99931.59;5036017;28;20029;-89
2023/04/24 05:06:02;;;;;;;11.95;6.95;;;;;;;7.88;100.00;99947.84;5036354;28;20055;-89
2023/04/24 05:08:27;;;;;;;12.03;6.70;;;;;;;7.80;100.00;99941.97;5035799;28;20481;-90
2023/04/24 05:11:06;;;;;;;10.57;6.10;;;;;;;7.77;100.00;99934.28;5036551;28;20035;-90
2023/04/24 05:13:31;;;;;;;11.02;6.07;;;;;;;7.76;100.00;99943.78;5036063;28;20021;-90
2023/04/24 05:15:57;;;;;;;9.10;5.70;;;;;;;7.85;100.00;99945.31;5036210;28;20405;-90
2023/04/24 05:18:22;;;;;;;11.10;6.13;;;;;;;7.81;100.00;99946.25;5036346;28;20027;-90
2023/04/24 05:20:47;;;;;;;8.43;5.20;;;;;;;7.85;100.00;99950.47;5036087;28;20474;-90
2023/04/24 05:23:42;;;;;;;7.73;4.87;;;;;;;7.87;100.00;99961.63;5036762;28;20036;-90
2023/04/24 05:26:07;;;;;;;7.60;4.65;;;;;;;7.79;100.00;99948.84;5036444;28;20084;-90
2023/04/24 05:28:47;;;;;;;9.37;5.20;;;;;;;7.81;100.00;99961.75;5036504;28;20022;-91
2023/04/24 05:31:25;;;;;;;7.50;4.50;;;;;;;7.78;100.00;99957.47;5037468;28;20028;-92
2023/04/24 05:34:00;;;;;;;8.30;4.50;;;;;;;7.73;100.00;99957.56;5036822;28;20458;-92
2023/04/24 05:36:26;;;;;;;6.53;4.30;;;;;;;7.76;100.00;99961.84;5036063;28;20018;-91
2023/04/24 05:38:52;;;;;;;7.00;4.45;;;;;;;7.76;100.00;99961.84;5036336;28;20026;-93
2023/04/24 05:41:23;;;;;;;5.82;3.90;;;;;;;7.71;100.00;99963.66;5035809;28;20028;-92
2023/04/24 05:43:57;;;;;;;5.45;3.50;;;;;;;7.62;100.00;99950.91;5035199;28;20112;-91
2023/04/24 05:46:22;;;;;;;5.35;3.22;;;;;;;7.68;100.00;99958.53;5035801;28;20112;-89
2023/04/24 05:49:00;;;;;;;4.50;3.20;;;;;;;7.69;100.00;99970.56;5000796;28;20533;-91
2023/04/24 05:51:25;;;;;;;4.35;2.95;;;;;;;7.70;100.00;99983.47;5035404;28;20454;-92
2023/04/24 05:53:57;;;;;;;3.27;2.60;;;;;;;7.70;100.00;99995.50;5035500;28;20032;-92
2023/04/24 05:56:36;;;;;;;4.00;2.60;;;;;;;7.57;100.00;99995.72;5029594;28;20035;-93
2023/04/24 05:59:11;;;;;;;5.05;2.30;;;;;;;7.57;100.00;100003.47;5015836;28;20026;-92
2023/04/24 06:01:36;;;;;;;2.50;2.30;;;;;;;7.52;100.00;99997.53;5015095;28;20014;-91
2023/04/24 06:04:19;;;;;;;2.47;2.10;;;;;;;7.54;100.00;100008.66;5015754;28;20109;-93
2023/04/24 06:06:45;;;;;;;2.00;1.90;;;;;;;7.60;100.00;100025.78;5015464;28;20038;-93
2023/04/24 06:09:10;;;;;;;2.47;2.20;;;;;;;7.57;100.00;100026.72;5015568;28;20033;-92
2023/04/24 06:11:35;;;;;;;2.07;1.70;;;;;;;7.60;100.00;100035.28;5015171;28;20014;-91
2023/04/24 06:14:00;;;;;;;1.80;1.70;;;;;;;7.64;100.00;100039.53;5014952;28;20033;-91
2023/04/24 06:16:26;;;;;;;1.93;1.70;;;;;;;7.62;100.00;100042.13;5014793;28;20477;-91
2023/04/24 06:18:51;;;;;;;1.50;1.40;;;;;;;7.66;100.00;100050.66;5015449;28;20021;-91
2023/04/24 06:21:23;;;;;;;1.87;1.70;;;;;;;7.67;100.00;100052.38;5015583;28;20100;-92
2023/04/24 06:23:55;;;;;;;1.27;1.25;;;;;;;7.69;100.00;100054.09;5016141;28;20101;-91
2023/04/24 06:26:21;;;;;;;1.42;1.33;;;;;;;7.72;100.00;100063.50;5015298;28;20030;-92
2023/04/24 06:28:47;;;;;;;1.30;1.30;;;;;;;7.75;100.00;100066.03;5014906;28;20064;-92
2023/04/24 06:31:12;;;;;;;1.57;1.47;;;;;;;7.80;100.00;100079.72;5014895;28;20017;-91
2023/04/24 06:33:37;;;;;;;1.60;1.50;;;;;;;7.80;100.00;100082.31;5014512;28;20025;-85
2023/04/24 06:36:03;;;;;;;1.52;1.42;;;;;;;7.81;100.00;100096.09;5015021;28;20022;-88
2023/04/24 06:38:29;;;;;;;1.50;1.40;;;;;;;7.83;100.00;100099.47;5025586;28;20037;-94
2023/04/24 06:40:55;;;;;;;1.17;1.17;;;;;;;7.84;100.00;100101.19;5034562;28;20375;-95
2023/04/24 06:43:20;;;;;;;1.70;1.60;;;;;;;7.81;100.00;100091.75;5034223;28;20026;-95
2023/04/24 06:45:46;;;;;;;3.90;2.40;;;;;;;7.83;100.00;100092.59;5035357;28;20018;-95
2023/04/24 06:48:12;;;;;;;4.60;3.10;;;;;;;7.78;100.00;100109.88;5035170;28;20036;-93
2023/04/24 06:50:37;;;;;;;9.50;3.97;;;;;;;7.76;100.00;100114.25;5034617;28;20014;-95
2023/04/24 06:53:03;;;;;;;5.00;3.37;;;;;;;7.73;100.00;100122.88;5034507;28;20022;-94
2023/04/24 06:55:28;;;;;;;5.20;3.47;;;;;;;7.73;100.00;100122.03;5034333;28;20032;-93
2023/04/24 06:57:53;;;;;;;5.53;3.60;;;;;;;7.73;100.00;100132.38;5025380;28;20076;-94
2023/04/24 07:00:19;;;;;;;5.93;3.78;;;;;;;7.71;100.00;100136.69;5034658;28;20105;-95
2023/04/24 07:02:53;;;;;;;4.78;3.30;;;;;;;7.72;100.00;100151.31;5034182;28;20381;-94
2023/04/24 07:05:21;;;;;;;6.07;3.47;;;;;;;7.76;100.00;100162.47;5034305;28;20049;-95
2023/04/24 07:07:47;;;;;;;10.40;4.65;;;;;;;7.69;100.00;100169.44;5034320;28;20021;-94
2023/04/24 07:10:12;;;;;;;12.33;6.30;;;;;;;7.59;100.00;100179.06;5034690;28;20029;-93
2023/04/24 07:12:38;;;;;;;11.97;6.63;;;;;;;7.56;100.00;100192.00;5034084;28;20461;-89
2023/04/24 07:15:05;;;;;;;16.30;7.47;;;;;;;7.45;100.00;100192.13;5033863;28;20125;-91
2023/04/24 07:17:38;;;;;;;;;;;;;;;7.48;100.00;100215.34;5034382;28;20040;-94
2023/04/24 07:20:04;;;;;;;16.70;7.72;;;;;;;7.44;100.00;100223.16;5033975;28;19920;-89
2023/04/24 07:22:29;;;;;;;17.48;8.20;;;;;;;7.33;100.00;100216.38;5033262;28;20080;-91
2023/04/24 07:24:55;;;;;;;17.47;7.87;;;;;;;7.35;100.00;100234.44;5033758;28;20026;-90
2023/04/24 07:27:20;;;;;;;16.33;7.77;;;;;;;7.36;100.00;100238.72;5033076;28;20544;-90
2023/04/24 07:29:45;;;;;;;17.02;7.70;;;;;;;7.33;100.00;100251.66;5032760;28;20032;-90
2023/04/24 07:32:10;;;;;;;15.43;7.70;;;;;;;7.33;100.00;100254.25;5033429;28;20025;-89
2023/04/24 07:34:36;;;;;;;15.90;7.40;;;;;;;7.34;100.00;100269.72;5041211;28;20144;-94
2023/04/24 07:37:01;;;;;;;14.13;7.00;;;;;;;7.35;100.00;100270.56;5052814;28;20112;-90
2023/04/24 07:39:27;;;;;;;11.97;6.37;;;;;;;7.36;100.00;100277.44;5053331;28;20024;-90
2023/04/24 07:41:52;;;;;;;13.98;6.88;;;;;;;7.35;100.00;100278.31;5053631;28;20025;-93
2023/04/24 07:44:18;;;;;;;14.77;6.67;;;;;;;7.31;100.00;100279.25;5052949;28;20101;-91
2023/04/24 07:46:43;;;;;;;12.27;6.43;;;;;;;7.34;100.00;100295.53;5053273;28;20025;-90
2023/04/24 07:49:08;;;;;;;12.57;6.00;;;;;;;7.32;100.00;100302.44;5053310;28;20029;-90
2023/04/24 07:51:38;;;;;;;12.50;5.53;;;;;;;7.35;100.00;100320.50;5052215;28;20021;-89
2023/04/24 07:54:05;;;;;;;13.02;5.88;;;;;;;7.34;100.00;100325.66;5053602;28;20025;-90
2023/04/24 07:56:31;;;;;;;15.18;6.15;;;;;;;7.32;100.00;100327.41;5052623;28;20044;-90
2023/04/24 07:59:00;;;;;;;12.67;5.53;;;;;;;7.33;100.00;100340.28;5053216;28;20477;-88
2023/04/24 08:01:26;;;;;;;11.98;5.45;;;;;;;7.36;100.00;100344.56;5052586;28;20047;-89
2023/04/24 08:03:51;;;;;;;12.17;5.70;;;;;;;7.34;100.00;100343.72;5052711;28;20537;-88
2023/04/24 08:06:16;;;;;;;12.43;5.30;;;;;;;7.36;100.00;100348.03;5052713;28;20090;-89
2023/04/24 08:08:42;;;;;;;13.40;5.10;;;;;;;7.39;100.00;100355.72;5053049;28;20064;-91
2023/04/24 08:11:07;;;;;;;12.63;4.93;;;;;;;7.38;100.00;100358.31;5051851;28;20111;-89
2023/04/24 08:13:32;;;;;;;10.80;4.50;;;;;;;7.41;100.00;100361.72;5052909;28;20017;-89
2023/04/24 08:15:58;;;;;;;11.07;4.20;;;;;;;7.47;100.00;100371.13;5052959;28;20032;-90
2023/04/24 08:18:23;;;;;;;10.20;4.30;;;;;;;7.48;100.00;100374.59;5052154;28;20017;-90
2023/04/24 08:20:48;;;;;;;8.18;4.10;;;;;;;7.52;100.00;100381.41;5053225;28;20024;-90
2023/04/24 08:23:13;;;;;;;7.77;3.70;;;;;;;7.52;100.00;100390.03;5052765;28;20539;-90
2023/04/24 08:25:39;;;;;;;5.80;3.30;;;;;;;7.53;100.00;100384.00;5052180;28;20024;-90
2023/04/24 08:28:06;;;;;;;7.40;3.43;;;;;;;7.58;100.00;100383.94;5053051;28;20020;-90
2023/04/24 08:30:31;;;;;;;8.55;3.70;;;;;;;7.65;100.00;100395.06;5052464;28;20021;-90
2023/04/24 08:32:57;;;;;;;9.13;3.85;;;;;;;7.64;100.00;100406.28;5051592;28;20037;-90
2023/04/24 08:35:22;;;;;;;12.67;4.00;;;;;;;7.61;100.00;100401.13;5038880;28;20382;-90
2023/04/24 08:37:48;;;;;;;8.00;3.53;;;;;;;7.60;100.00;100412.34;5033951;28;20167;-90
2023/04/24 08:40:15;;;;;;;8.88;3.90;;;;;;;7.65;100.00;100426.06;5036105;28;20022;-90
2023/04/24 08:42:44;;;;;;;14.65;4.10;;;;;;;7.65;100.00;100433.81;5036128;28;20014;-91
2023/04/24 08:45:12;;;;;;;10.95;4.32;;;;;;;7.58;100.00;100428.69;5035703;28;20112;-87
2023/04/24 08:47:44;;;;;;;10.73;4.10;;;;;;;7.66;100.00;100446.72;5034898;28;20330;-86
2023/04/24 08:50:13;;;;;;;9.68;3.70;;;;;;;7.66;100.00;100445.84;5035732;28;20041;-87
2023/04/24 08:52:38;;;;;;;7.97;3.70;;;;;;;7.62;100.00;100450.19;5035371;28;20029;-87
2023/04/24 08:55:05;;;;;;;10.03;4.00;;;;;;;7.73;100.00;100452.66;5034434;28;20029;-86
2023/04/24 08:57:32;;;;;;;6.57;3.47;;;;;;;7.82;100.00;100457.75;5034823;28;20045;-87
2023/04/24 08:59:58;;;;;;;12.02;3.25;;;;;;;7.94;100.00;100458.50;5035610;28;20065;-88
2023/04/24 09:02:24;;;;;;;9.02;3.60;;;;;;;8.08;100.00;100459.19;5035612;28;20034;-87
2023/04/24 09:04:50;;;;;;;13.23;3.55;;;;;;;8.17;100.00;100461.69;5036041;28;20029;-88
2023/04/24 09:07:17;;;;;;;10.93;3.60;;;;;;;8.12;100.00;100468.63;5034154;28;20363;-88
2023/04/24 09:09:43;;;;;;;11.90;3.55;;;;;;;8.03;100.00;100476.47;5035219;28;20442;-87
2023/04/24 09:12:09;;;;;;;9.73;3.53;;;;;;;7.91;100.00;100484.34;5035234;28;20060;-87
2023/04/24 09:14:36;;;;;;;8.60;3.35;;;;;;;7.73;100.00;100478.50;5034399;28;20019;-87
2023/04/24 09:17:02;;;;;;;;;;;;;;;7.78;100.00;100494.81;5029584;28;20037;-87
2023/04/24 09:19:40;;;;;;;8.10;3.60;;;;;;;7.64;100.00;100482.03;5034869;28;19917;-87
2023/04/24 09:22:06;;;;;;;8.10;3.03;;;;;;;7.75;100.00;100501.72;5034847;28;20030;-88
2023/04/24 09:24:33;;;;;;;10.75;3.35;;;;;;;7.69;100.00;100482.84;5034934;28;20024;-86
2023/04/24 09:27:01;;;;;;;8.90;3.20;;;;;;;7.76;100.00;100493.97;5034831;28;20029;-87
2023/04/24 09:29:27;;;;;;;10.57;3.30;;;;;;;7.97;100.00;100518.75;5028156;28;20033;-86
2023/04/24 09:31:52;;;;;;;6.23;2.90;;;;;;;8.04;100.00;100515.25;5034772;28;20486;-87
2023/04/24 09:35:12;;;;;;;8.73;3.27;;;;;;;8.17;100.00;100515.09;5038415;28;20061;-87
2023/04/24 09:37:43;;;;;;;8.57;3.13;;;;;;;8.16;100.00;100526.31;4954446;29;20190;-86
2023/04/24 09:40:14;;;;;;;7.82;2.85;;;;;;;8.18;100.00;100538.34;5050993;28;20044;-87
2023/04/24 09:42:43;;;;;;;9.27;3.08;;;;;;;8.11;100.00;100547.03;5055260;23;20414;-87
2023/04/24 09:45:11;;;;;;;10.98;3.05;;;;;;;8.04;100.00;100551.44;5034959;28;20031;-88
2023/04/24 09:47:40;;;;;;;7.90;3.00;;;;;;;7.94;100.00;100541.19;5034219;28;20463;-87
2023/04/24 09:50:16;;;;;;;5.40;2.92;;;;;;;7.93;100.00;100566.19;5034149;28;20036;-87
2023/04/24 09:52:47;;;;;;;8.98;3.15;;;;;;;7.92;100.00;100559.28;5034304;28;20497;-87
2023/04/24 09:55:19;;;;;;;8.07;2.92;;;;;;;7.93;100.00;100560.13;5033783;28;20040;-86
2023/04/24 09:57:49;;;;;;;8.40;2.95;;;;;;;7.99;100.00;100583.34;5033820;28;20096;-87
2023/04/24 10:00:22;;;;;;;8.55;2.70;;;;;;;8.09;100.00;100584.09;5034210;28;20034;-88
2023/04/24 10:02:55;;;;;;;4.88;2.30;;;;;;;8.22;100.00;100574.53;5027933;28;20029;-87
2023/04/24 10:05:24;;;;;;;5.63;2.78;;;;;;;8.37;100.00;100581.28;5033425;28;20485;-86
2023/04/24 10:07:49;;;;;;;9.07;2.60;;;;;;;8.41;98.18;100578.63;5033869;28;20393;-87
2023/04/24 10:10:16;;;;;;;9.37;3.23;;;;;;;8.53;94.47;100587.16;5033637;28;20026;-86
2023/04/24 10:12:41;;;;;;;5.30;2.53;;;;;;;8.62;95.93;100587.06;5033864;28;20022;-85
2023/04/24 10:15:10;;;;;;;6.07;2.37;;;;;;;8.74;97.01;100589.50;5034239;28;20052;-87
2023/04/24 10:17:35;;;;;;;4.13;2.30;;;;;;;8.85;97.18;100586.78;5033484;28;20037;-82
2023/04/24 10:20:01;;;;;;;6.10;2.40;;;;;;;8.86;93.94;100598.84;5033947;28;20040;-85
2023/04/24 10:22:29;;;;;;;4.90;2.30;;;;;;;8.85;94.37;100589.34;5033591;28;20046;-86
2023/04/24 10:24:56;;;;;;;2.75;2.00;;;;;;;8.88;95.07;100598.84;5033548;28;20064;-86
2023/04/24 10:27:23;;;;;;;4.97;2.10;;;;;;;8.87;95.42;100599.72;5033288;28;20037;-86
2023/04/24 10:29:53;;;;;;;4.65;2.20;;;;;;;8.88;92.51;100596.25;5033744;28;20060;-85
2023/04/24 10:32:18;;;;;;;3.38;1.90;;;;;;;8.90;94.08;100610.00;5032966;28;20469;-87
2023/04/24 10:34:43;;;;;;;4.93;2.00;;;;;;;8.98;92.68;100610.78;5033629;28;20091;-86
2023/04/24 10:37:09;;;;;;;2.80;1.90;;;;;;;8.91;88.51;100607.41;5033439;28;20120;-86
2023/04/24 10:39:35;;;;;;;2.57;1.60;;;;;;;8.95;89.69;100613.41;5033004;28;20414;-86
2023/04/24 10:42:00;;;;;;;2.53;1.50;;;;;;;8.86;88.60;100619.53;5033641;28;20048;-85
2023/04/24 10:44:36;;;;;;;2.63;1.40;;;;;;;8.78;88.55;100637.75;5053072;28;20021;-85
2023/04/24 10:47:01;;;;;;;2.43;1.53;;;;;;;8.71;88.99;100640.44;5052801;28;20029;-86
2023/04/24 10:49:31;;;;;;;3.77;1.70;;;;;;;8.68;88.53;100646.47;5052792;28;20032;-86
2023/04/24 10:52:07;;;;;;;1.83;1.25;;;;;;;8.73;90.33;100649.00;5053181;28;20047;-86
2023/04/24 10:54:41;;;;;;;2.67;1.40;;;;;;;8.73;90.58;100642.13;5052023;28;20031;-86
2023/04/24 10:57:22;;;;;;;5.63;1.60;;;;;;;8.75;89.63;100657.63;5053289;28;20037;-86
2023/04/24 10:59:49;;;;;;;3.13;1.45;;;;;;;8.76;89.75;100659.34;5052743;28;20179;-86
2023/04/24 11:02:15;;;;;;;4.47;1.60;;;;;;;8.73;87.74;100656.78;5052459;28;20036;-86
2023/04/24 11:04:42;;;;;;;3.97;1.70;;;;;;;8.76;88.08;100660.22;5052722;28;20480;-86
2023/04/24 11:07:09;;;;;;;2.47;1.30;;;;;;;8.78;90.22;100662.78;5052736;28;20384;-87
2023/04/24 11:09:36;;;;;;;1.40;1.20;;;;;;;8.86;90.28;100666.13;5053259;28;20052;-86
2023/04/24 11:12:07;;;;;;;3.35;1.50;;;;;;;8.88;90.39;100666.97;5053445;28;20040;-87
2023/04/24 11:14:57;;;;;;;3.97;1.50;;;;;;;8.90;89.07;100675.59;5051850;28;20033;-87
2023/04/24 11:17:31;;;;;;;3.08;1.38;;;;;;;8.94;90.04;100673.81;5052811;28;20465;-86
2023/04/24 11:20:11;;;;;;;2.30;1.30;;;;;;;9.07;90.67;100671.94;5053279;28;20139;-87
2023/04/24 11:22:39;;;;;;;1.08;1.00;;;;;;;9.16;89.82;100663.19;5051906;28;20039;-87
2023/04/24 11:25:06;;;;;;;4.70;1.50;;;;;;;9.16;87.31;100673.56;5052698;28;20409;-87
2023/04/24 11:27:40;;;;;;;2.47;1.23;;;;;;;9.09;88.42;100673.66;5051806;28;20029;-87
2023/04/24 11:30:06;;;;;;;3.45;1.48;;;;;;;9.08;87.30;100684.88;5053181;28;20025;-87